Cortes Canales — EA6849 — position and weather

sailwx.info

Track history (hours):
 
Tides and Currents Weather Stations Pressure Air Temp Water Temp Dewpoint Dewpoint Depression Visibility Wind Speed Wind Dir Waves Ship Positions

Cortes Canales

Last reported at 2018-Apr-02 14:23 UTC. Time now 2018-Jun-23 15:54 UTC.
Position N 36°58' W 008°27'.
Warning: this ship's position is months out of date.

Length 19 m.

Type: Fishing. MMSI: 224004660.

Date/timePositionNaut miles runAvg speedWind from/ knotsBaromVisibWave heightAir tempDewpointWater temp
2018-Apr-02 14:23N 36°58' W 008°27'1 2.8
2018-Apr-02 14:00N 36°57' W 008°28'1 2.8
2018-Apr-02 13:30N 36°57' W 008°29'2 2.9
2018-Apr-02 12:55N 36°56' W 008°31'4 7.6
2018-Apr-02 12:27N 36°55' W 008°36'2 0.8
2018-Apr-02 09:29N 36°54' W 008°37'5 3.1
2018-Apr-02 07:43N 36°56' W 008°31'0 1.1
2018-Apr-02 07:27N 36°55' W 008°31'2 2.4
2018-Apr-02 06:31N 36°57' W 008°29'0 3.0
2018-Apr-02 06:27N 36°57' W 008°28'1 3.0
2018-Apr-02 06:00N 36°58' W 008°27'2 3.0
2018-Apr-02 05:30N 36°58' W 008°25'2 3.1
2018-Apr-02 05:00N 36°58' W 008°23'2 3.0
2018-Apr-02 04:30N 36°57' W 008°21'2 3.0
2018-Apr-02 04:00N 36°57' W 008°20'2 3.0
2018-Apr-02 03:30N 36°56' W 008°18'2 4.6
2018-Apr-02 03:00N 36°56' W 008°15'  
2018-Mar-26 13:20N 36°56' W 008°28'1 0.6
2018-Mar-26 11:23N 36°57' W 008°28'1 3.1
2018-Mar-26 11:00N 36°58' W 008°27'2 3.1
2018-Mar-26 10:28N 36°58' W 008°25'1 3.0
2018-Mar-26 10:00N 36°58' W 008°23'1 3.0
2018-Mar-26 09:30N 36°57' W 008°21'2 3.0
2018-Mar-26 08:46N 36°56' W 008°19'1 2.4
2018-Mar-26 08:28N 36°56' W 008°18'2 4.3
2018-Mar-26 07:55N 36°58' W 008°16'1 2.7
2018-Mar-26 07:30N 36°59' W 008°15'1 2.3
2018-Mar-26 07:00N 36°59' W 008°13'  
Track history (hours):
 
Tides and Currents Weather Stations Pressure Air Temp Water Temp Dewpoint Dewpoint Depression Visibility Wind Speed Wind Dir Waves Ship Positions

Cortes Canales

Last reported at 2018-Apr-02 14:23 UTC. Time now 2018-Jun-23 15:54 UTC.
Position N 36°58' W 008°27'.
Warning: this ship's position is months out of date.

Length 19 m.

Type: Fishing. MMSI: 224004660.

Date/timePositionNaut miles runAvg speedWind from/ knotsBaromVisibWave heightAir tempDewpointWater temp
2018-Apr-02 14:23N 36°58' W 008°27'1 2.8
2018-Apr-02 14:00N 36°57' W 008°28'1 2.8
2018-Apr-02 13:30N 36°57' W 008°29'2 2.9
2018-Apr-02 12:55N 36°56' W 008°31'4 7.6
2018-Apr-02 12:27N 36°55' W 008°36'2 0.8
2018-Apr-02 09:29N 36°54' W 008°37'5 3.1
2018-Apr-02 07:43N 36°56' W 008°31'0 1.1
2018-Apr-02 07:27N 36°55' W 008°31'2 2.4
2018-Apr-02 06:31N 36°57' W 008°29'0 3.0
2018-Apr-02 06:27N 36°57' W 008°28'1 3.0
2018-Apr-02 06:00N 36°58' W 008°27'2 3.0
2018-Apr-02 05:30N 36°58' W 008°25'2 3.1
2018-Apr-02 05:00N 36°58' W 008°23'2 3.0
2018-Apr-02 04:30N 36°57' W 008°21'2 3.0
2018-Apr-02 04:00N 36°57' W 008°20'2 3.0
2018-Apr-02 03:30N 36°56' W 008°18'2 4.6
2018-Apr-02 03:00N 36°56' W 008°15'  
2018-Mar-26 13:20N 36°56' W 008°28'1 0.6
2018-Mar-26 11:23N 36°57' W 008°28'1 3.1
2018-Mar-26 11:00N 36°58' W 008°27'2 3.1
2018-Mar-26 10:28N 36°58' W 008°25'1 3.0
2018-Mar-26 10:00N 36°58' W 008°23'1 3.0
2018-Mar-26 09:30N 36°57' W 008°21'2 3.0
2018-Mar-26 08:46N 36°56' W 008°19'1 2.4
2018-Mar-26 08:28N 36°56' W 008°18'2 4.3
2018-Mar-26 07:55N 36°58' W 008°16'1 2.7
2018-Mar-26 07:30N 36°59' W 008°15'1 2.3
2018-Mar-26 07:00N 36°59' W 008°13'  

Dump ship's entire track history